createdAt,value
2018-11-23T00:02:08.698Z,44.87
2018-11-23T00:07:12.003Z,40.00
2018-11-23T00:12:15.123Z,38.30
2018-11-23T00:33:43.224Z,36.13
2018-11-23T00:38:46.341Z,36.63
2018-11-23T00:43:49.456Z,38.37
2018-11-23T00:48:52.580Z,37.00
2018-11-23T00:53:55.696Z,44.63
2018-11-23T00:58:58.819Z,43.40
2018-11-23T01:04:02.010Z,39.33
2018-11-23T01:09:08.401Z,37.60
2018-11-23T01:14:11.702Z,39.73
2018-11-23T01:19:14.825Z,38.90
2018-11-23T01:24:17.975Z,43.17
2018-11-23T01:29:21.159Z,35.13
2018-11-23T01:34:24.308Z,43.30
2018-11-23T01:39:27.621Z,43.37
2018-11-23T01:44:35.207Z,43.30
2018-11-23T01:49:38.343Z,46.60
2018-11-23T01:54:41.509Z,44.57
2018-11-23T01:59:44.618Z,47.73
2018-11-23T02:04:47.722Z,46.33
2018-11-23T02:09:50.845Z,49.77
2018-11-23T02:14:54.290Z,48.83
2018-11-23T02:19:57.803Z,49.43
2018-11-23T02:25:00.914Z,49.90
2018-11-23T02:30:06.132Z,53.87
2018-11-23T02:35:09.257Z,46.80
2018-11-23T02:40:13.596Z,51.50
2018-11-23T02:45:18.136Z,51.80
2018-11-23T02:50:21.401Z,55.73
2018-11-23T02:55:24.501Z,56.83
2018-11-23T03:00:27.608Z,48.33
2018-11-23T03:05:30.760Z,49.43
2018-11-23T03:10:33.868Z,46.63
2018-11-23T03:15:36.975Z,51.23
2018-11-23T03:20:40.092Z,56.87
2018-11-23T03:25:43.181Z,47.03
2018-11-23T03:30:46.288Z,53.00
2018-11-23T03:35:49.465Z,56.63
2018-11-23T03:57:17.606Z,50.33
2018-11-23T04:02:20.700Z,56.37
2018-11-23T04:07:24.128Z,49.63
2018-11-23T04:12:28.792Z,56.83
2018-11-23T04:17:31.988Z,65.10
2018-11-23T04:22:35.193Z,54.97
2018-11-23T04:27:38.348Z,56.47
2018-11-23T04:32:41.469Z,57.63
2018-11-23T04:37:45.427Z,59.27
2018-11-23T04:42:48.577Z,53.23
2018-11-23T05:04:15.933Z,51.53
2018-11-23T05:09:19.052Z,57.40
2018-11-23T05:14:22.268Z,62.87
2018-11-23T05:19:25.376Z,61.30
2018-11-23T05:24:28.477Z,62.70
2018-11-23T05:29:31.588Z,57.73
2018-11-23T05:50:59.848Z,54.30
2018-11-23T05:56:02.988Z,53.77
2018-11-23T06:01:06.081Z,54.23
2018-11-23T06:06:09.180Z,56.80
2018-11-23T06:11:12.276Z,55.00
2018-11-23T06:16:15.364Z,51.27
2018-11-23T06:21:18.488Z,57.43
2018-11-23T06:26:23.742Z,53.93
2018-11-23T06:31:26.847Z,55.67
2018-11-23T06:52:55.130Z,45.10
2018-11-23T06:57:58.213Z,48.77
2018-11-23T07:03:01.327Z,54.30
2018-11-23T07:08:04.679Z,57.03
2018-11-23T07:13:08.913Z,53.73
2018-11-23T07:18:12.097Z,51.93
2018-11-23T07:23:15.684Z,63.73
2018-11-23T07:28:18.912Z,45.63
2018-11-23T07:33:22.019Z,57.00
2018-11-23T07:38:25.115Z,53.20
2018-11-23T07:59:53.638Z,47.90
2018-11-23T08:04:56.741Z,53.27
2018-11-23T08:09:59.587Z,50.73
2018-11-23T08:15:02.689Z,46.57
2018-11-23T08:20:06.672Z,44.90
2018-11-23T08:25:10.929Z,42.07
2018-11-23T08:30:17.345Z,44.43
2018-11-23T08:35:20.448Z,41.43
2018-11-23T08:40:24.967Z,55.37
2018-11-23T09:01:53.457Z,54.20
2018-11-23T09:06:56.555Z,51.17
2018-11-23T09:11:59.668Z,46.07
2018-11-23T09:17:02.766Z,46.33
2018-11-23T09:22:06.281Z,51.43
2018-11-23T09:27:09.396Z,53.00
2018-11-23T09:32:12.535Z,52.20
2018-11-23T09:37:15.676Z,57.10
2018-11-23T09:42:18.777Z,66.90
2018-11-23T10:03:45.493Z,75.30
2018-11-23T10:08:48.594Z,65.33
2018-11-23T10:13:51.691Z,68.20
2018-11-23T10:18:54.805Z,64.73
2018-11-23T10:23:57.933Z,80.70
2018-11-23T10:29:01.024Z,62.30
2018-11-23T10:34:04.165Z,72.07
2018-11-23T10:39:07.617Z,69.97
2018-11-23T10:44:10.697Z,68.50
2018-11-23T10:49:13.789Z,64.73
2018-11-23T10:54:16.906Z,62.67
2018-11-23T10:59:20.000Z,61.73
2018-11-23T11:04:28.739Z,63.83
2018-11-23T11:25:55.903Z,59.03
2018-11-23T11:30:58.981Z,51.50
2018-11-23T11:36:02.085Z,62.73
2018-11-23T11:57:29.772Z,48.60
2018-11-23T12:02:32.876Z,54.93
2018-11-23T12:07:35.972Z,61.23
2018-11-23T12:12:39.424Z,65.70
2018-11-23T12:17:42.831Z,50.33
2018-11-23T12:22:46.172Z,57.67
2018-11-23T12:27:49.251Z,56.90
2018-11-23T12:32:53.398Z,57.97
2018-11-23T12:37:56.539Z,52.17
2018-11-23T12:42:59.659Z,52.50
2018-11-23T13:04:27.562Z,45.33
2018-11-23T13:09:30.648Z,56.83
2018-11-23T13:14:33.740Z,53.53
2018-11-23T13:19:36.899Z,50.57
2018-11-23T13:24:40.006Z,59.53
2018-11-23T13:29:43.728Z,55.80
2018-11-23T13:34:46.965Z,58.60
2018-11-23T13:56:14.792Z,57.30
2018-11-23T14:17:43.251Z,52.20
2018-11-23T14:22:46.346Z,56.50
2018-11-23T14:27:50.094Z,66.40
2018-11-23T14:32:53.541Z,91.90
2018-11-23T14:37:57.316Z,72.10
2018-11-23T14:43:00.427Z,76.57
2018-11-23T14:48:05.097Z,78.40
2018-11-23T14:53:08.186Z,69.93
2018-11-23T14:58:11.278Z,76.73
2018-11-23T15:03:14.372Z,76.87
2018-11-23T15:08:17.454Z,64.03
2018-11-23T15:13:20.540Z,73.57
2018-11-23T15:18:23.623Z,71.27
2018-11-23T15:23:26.797Z,74.57
2018-11-23T15:28:29.925Z,73.17
2018-11-23T15:33:33.064Z,80.27
2018-11-23T15:55:01.016Z,93.03
2018-11-23T16:00:05.090Z,93.90
2018-11-23T16:05:12.076Z,86.40
2018-11-23T16:26:40.725Z,100.10
2018-11-23T16:31:43.898Z,109.13
2018-11-23T16:36:46.996Z,115.00
2018-11-23T16:41:50.091Z,113.73
2018-11-23T16:46:53.318Z,127.03
2018-11-23T16:51:56.415Z,102.00
2018-11-23T17:13:24.036Z,137.23
2018-11-23T17:18:27.188Z,134.27
2018-11-23T17:23:31.395Z,135.33
2018-11-23T17:28:34.585Z,116.13
2018-11-23T17:33:37.695Z,137.77
2018-11-23T17:38:47.232Z,124.23
2018-11-23T17:43:43.989Z,126.33
2018-11-23T17:48:47.150Z,126.70
2018-11-23T18:10:17.307Z,139.20
2018-11-23T18:31:45.262Z,125.17
2018-11-23T18:36:48.405Z,141.33
2018-11-23T18:41:52.041Z,123.13
2018-11-23T19:03:20.560Z,132.97
2018-11-23T19:08:24.067Z,120.17
2018-11-23T19:13:27.377Z,123.57
2018-11-23T19:34:54.976Z,118.93
2018-11-23T19:56:23.581Z,111.40
2018-11-23T20:01:27.155Z,104.97
2018-11-23T20:06:31.072Z,117.47
2018-11-23T20:11:34.169Z,92.20
2018-11-23T20:33:02.028Z,104.27
2018-11-23T20:38:05.539Z,111.00
2018-11-23T20:43:09.259Z,93.37
2018-11-23T21:04:37.313Z,98.10
2018-11-23T21:09:40.396Z,99.30
2018-11-23T21:14:43.477Z,110.83
2018-11-23T21:19:46.575Z,97.73
2018-11-23T21:41:14.764Z,91.93
2018-11-23T21:46:17.935Z,93.03
2018-11-23T21:51:21.052Z,86.30
2018-11-23T21:56:24.211Z,87.67
2018-11-23T22:01:27.336Z,92.37
2018-11-23T22:22:55.332Z,88.53
2018-11-23T22:27:58.427Z,78.00
2018-11-23T22:33:01.518Z,84.43
2018-11-23T22:38:04.837Z,83.70
2018-11-23T22:43:07.909Z,80.47
2018-11-23T22:48:11.052Z,82.97
2018-11-23T22:53:14.149Z,82.53
2018-11-23T22:58:17.237Z,75.07
2018-11-23T23:03:20.328Z,69.47
2018-11-23T23:08:23.420Z,78.73
2018-11-23T23:13:26.584Z,78.27
2018-11-23T23:18:29.657Z,71.93
2018-11-23T23:23:32.760Z,79.40
2018-11-23T23:28:35.922Z,70.50
2018-11-23T23:33:39.006Z,72.57
2018-11-23T23:38:42.118Z,86.73
2018-11-23T23:43:45.243Z,73.97
2018-11-23T23:48:48.361Z,76.87
2018-11-23T23:53:51.486Z,74.90
2018-11-23T23:58:54.605Z,69.80
